createdAt,value
2017-12-30T00:01:13.851Z,0.78
2017-12-30T00:03:41.632Z,0.89
2017-12-30T00:06:09.294Z,1.02
2017-12-30T00:08:37.001Z,1.10
2017-12-30T00:11:04.687Z,1.19
2017-12-30T00:13:32.333Z,1.28
2017-12-30T00:16:00.040Z,1.39
2017-12-30T00:18:27.734Z,1.47
2017-12-30T00:20:55.329Z,1.50
2017-12-30T00:23:23.899Z,1.53
2017-12-30T00:25:52.039Z,1.57
2017-12-30T00:28:19.665Z,1.64
2017-12-30T00:30:47.439Z,1.70
2017-12-30T00:33:15.056Z,1.74
2017-12-30T00:35:42.795Z,1.79
2017-12-30T00:38:12.788Z,1.82
2017-12-30T00:40:40.374Z,1.80
2017-12-30T00:43:07.974Z,1.85
2017-12-30T00:45:35.620Z,1.87
2017-12-30T00:48:03.291Z,1.86
2017-12-30T00:50:30.913Z,1.88
2017-12-30T00:52:58.570Z,1.89
2017-12-30T00:55:26.217Z,1.91
2017-12-30T00:57:55.771Z,1.95
2017-12-30T01:00:23.432Z,1.99
2017-12-30T01:02:51.047Z,2.09
2017-12-30T01:05:18.694Z,2.12
2017-12-30T01:07:46.363Z,2.11
2017-12-30T01:10:13.966Z,2.11
2017-12-30T01:12:41.619Z,2.13
2017-12-30T01:15:09.252Z,2.18
2017-12-30T01:17:39.876Z,2.19
2017-12-30T01:20:09.861Z,2.17
2017-12-30T01:22:37.615Z,2.16
2017-12-30T01:25:05.266Z,2.17
2017-12-30T01:27:32.934Z,2.16
2017-12-30T01:30:01.308Z,2.19
2017-12-30T01:32:31.005Z,2.23
2017-12-30T01:35:00.306Z,2.24
2017-12-30T01:37:27.992Z,2.23
2017-12-30T01:39:55.628Z,2.22
2017-12-30T01:42:23.239Z,2.21
2017-12-30T01:44:50.878Z,2.21
2017-12-30T01:47:20.096Z,2.19
2017-12-30T01:49:47.754Z,2.22
2017-12-30T01:52:15.495Z,2.23
2017-12-30T01:54:43.093Z,2.24
2017-12-30T01:57:10.731Z,2.25
2017-12-30T01:59:38.462Z,2.23
2017-12-30T02:02:06.086Z,2.26
2017-12-30T02:04:33.716Z,2.25
2017-12-30T02:07:01.361Z,2.24
2017-12-30T02:09:29.012Z,2.22
2017-12-30T02:11:59.262Z,2.21
2017-12-30T02:14:26.916Z,2.21
2017-12-30T02:16:54.832Z,2.20
2017-12-30T02:19:22.455Z,2.20
2017-12-30T02:21:50.062Z,2.19
2017-12-30T02:24:20.606Z,2.18
2017-12-30T02:26:48.260Z,2.17
2017-12-30T02:29:16.343Z,2.17
2017-12-30T02:31:43.942Z,2.18
2017-12-30T02:34:11.641Z,2.20
2017-12-30T02:36:39.265Z,2.20
2017-12-30T02:39:07.052Z,2.21
2017-12-30T02:41:34.693Z,2.27
2017-12-30T02:44:02.308Z,2.26
2017-12-30T02:46:32.665Z,2.29
2017-12-30T02:49:00.326Z,2.31
2017-12-30T02:51:28.694Z,2.32
2017-12-30T02:53:56.504Z,2.38
2017-12-30T02:56:24.102Z,2.36
2017-12-30T02:58:51.714Z,2.39
2017-12-30T03:01:19.396Z,2.38
2017-12-30T03:03:47.024Z,2.38
2017-12-30T03:06:14.658Z,2.35
2017-12-30T03:08:42.276Z,2.35
2017-12-30T03:11:09.874Z,2.34
2017-12-30T03:13:39.218Z,2.35
2017-12-30T03:16:06.901Z,2.34
2017-12-30T03:18:34.468Z,2.33
2017-12-30T03:21:02.162Z,2.35
2017-12-30T03:23:29.788Z,2.38
2017-12-30T03:25:57.404Z,2.38
2017-12-30T03:28:26.906Z,2.36
2017-12-30T03:30:54.537Z,2.37
2017-12-30T03:33:22.124Z,2.36
2017-12-30T03:35:49.776Z,2.37
2017-12-30T03:38:17.454Z,2.37
2017-12-30T03:40:46.660Z,2.36
2017-12-30T03:43:14.644Z,2.38
2017-12-30T03:45:42.230Z,2.38
2017-12-30T03:48:09.820Z,2.39
2017-12-30T03:50:37.485Z,2.40
2017-12-30T03:53:05.142Z,2.38
2017-12-30T03:55:33.138Z,2.38
2017-12-30T03:58:00.736Z,2.36
2017-12-30T04:00:28.320Z,2.35
2017-12-30T04:02:55.926Z,2.35
2017-12-30T04:05:23.638Z,2.36
2017-12-30T04:07:51.304Z,2.40
2017-12-30T04:10:18.880Z,2.43
2017-12-30T04:12:48.702Z,2.44
2017-12-30T04:15:16.310Z,2.41
2017-12-30T04:17:43.930Z,2.43
2017-12-30T04:20:11.736Z,2.44
2017-12-30T04:22:40.960Z,2.43
2017-12-30T04:25:08.614Z,2.43
2017-12-30T04:27:37.107Z,2.45
2017-12-30T04:30:04.733Z,2.46
2017-12-30T04:32:33.965Z,2.45
2017-12-30T04:35:04.252Z,2.47
2017-12-30T04:37:33.078Z,2.46
2017-12-30T04:40:00.754Z,2.46
2017-12-30T04:42:30.113Z,2.45
2017-12-30T04:44:57.769Z,2.46
2017-12-30T04:47:25.967Z,2.44
2017-12-30T04:49:53.594Z,2.43
2017-12-30T04:52:21.528Z,2.44
2017-12-30T04:54:49.249Z,2.44
2017-12-30T04:57:16.854Z,2.45
2017-12-30T04:59:44.715Z,2.44
2017-12-30T05:02:12.421Z,2.39
2017-12-30T05:04:40.120Z,2.39
2017-12-30T05:07:07.732Z,2.38
2017-12-30T05:09:36.101Z,2.33
2017-12-30T05:12:04.031Z,2.30
2017-12-30T05:14:31.621Z,2.29
2017-12-30T05:16:59.269Z,2.28
2017-12-30T05:19:26.891Z,2.25
2017-12-30T05:21:54.486Z,2.21
2017-12-30T05:24:22.133Z,2.17
2017-12-30T05:26:49.749Z,2.14
2017-12-30T05:29:17.351Z,2.11
2017-12-30T05:31:45.010Z,2.08
2017-12-30T05:34:12.643Z,2.04
2017-12-30T05:36:40.431Z,2.00
2017-12-30T05:39:08.015Z,1.95
2017-12-30T05:41:35.662Z,1.94
2017-12-30T05:44:03.648Z,1.90
2017-12-30T05:46:31.251Z,1.87
2017-12-30T05:48:58.949Z,1.84
2017-12-30T05:51:26.650Z,1.81
2017-12-30T05:53:54.214Z,1.78
2017-12-30T05:56:21.866Z,1.76
2017-12-30T05:58:49.459Z,1.74
2017-12-30T06:01:17.111Z,1.73
2017-12-30T06:03:44.741Z,1.70
2017-12-30T06:06:12.462Z,1.67
2017-12-30T06:08:40.081Z,1.65
2017-12-30T06:11:09.573Z,1.63
2017-12-30T06:13:39.828Z,1.62
2017-12-30T06:16:07.535Z,1.61
2017-12-30T06:18:35.171Z,1.63
2017-12-30T06:21:02.774Z,1.63
2017-12-30T06:23:30.393Z,1.63
2017-12-30T06:25:58.069Z,1.64
2017-12-30T06:28:25.706Z,1.63
2017-12-30T06:30:53.277Z,1.62
2017-12-30T06:33:20.880Z,1.60
2017-12-30T06:35:48.531Z,1.58
2017-12-30T06:38:16.216Z,1.56
2017-12-30T06:40:43.987Z,1.53
2017-12-30T06:43:11.577Z,1.52
2017-12-30T06:45:39.206Z,1.50
2017-12-30T06:48:08.619Z,1.48
2017-12-30T06:50:36.305Z,1.44
2017-12-30T06:53:04.200Z,1.43
2017-12-30T06:55:31.865Z,1.40
2017-12-30T06:57:59.449Z,1.38
2017-12-30T07:00:27.282Z,1.35
2017-12-30T07:02:54.987Z,1.32
2017-12-30T07:05:23.549Z,1.30
2017-12-30T07:07:51.189Z,1.31
2017-12-30T07:10:19.030Z,1.33
2017-12-30T07:12:46.633Z,1.35
2017-12-30T07:15:14.267Z,1.37
2017-12-30T07:17:43.495Z,1.38
2017-12-30T07:20:11.143Z,1.39
2017-12-30T07:22:38.787Z,1.39
2017-12-30T07:25:06.519Z,1.38
2017-12-30T07:27:34.169Z,1.37
2017-12-30T07:30:01.844Z,1.36
2017-12-30T07:32:29.545Z,1.34
2017-12-30T07:34:57.193Z,1.32
2017-12-30T07:37:24.805Z,1.30
2017-12-30T07:39:52.405Z,1.29
2017-12-30T07:42:20.051Z,1.30
2017-12-30T07:44:47.637Z,1.32
2017-12-30T07:47:17.499Z,1.35
2017-12-30T07:49:45.233Z,1.37
2017-12-30T07:52:12.855Z,1.44
2017-12-30T07:54:40.475Z,1.50
2017-12-30T07:57:08.129Z,1.58
2017-12-30T07:59:35.747Z,1.65
2017-12-30T08:02:03.577Z,1.70
2017-12-30T08:04:31.356Z,1.71
2017-12-30T08:07:00.199Z,1.73
2017-12-30T08:09:29.625Z,1.75
2017-12-30T08:11:59.483Z,1.78
2017-12-30T08:14:27.291Z,1.80
2017-12-30T08:16:54.929Z,1.81
2017-12-30T08:19:22.567Z,1.80
2017-12-30T08:21:50.306Z,1.82
2017-12-30T08:24:18.039Z,1.84
2017-12-30T08:26:45.812Z,1.88
2017-12-30T08:29:13.473Z,1.89
2017-12-30T08:31:41.144Z,1.93
2017-12-30T08:34:08.898Z,1.96
2017-12-30T08:36:36.594Z,1.97
2017-12-30T08:39:04.393Z,1.97
2017-12-30T08:41:32.037Z,1.97
2017-12-30T08:44:01.590Z,1.97
2017-12-30T08:46:29.998Z,1.97
2017-12-30T08:48:57.773Z,1.99
2017-12-30T08:51:25.488Z,2.00
2017-12-30T08:53:53.195Z,1.99
2017-12-30T08:56:20.865Z,2.00
2017-12-30T08:58:48.536Z,2.03
2017-12-30T09:01:16.159Z,2.05
2017-12-30T09:03:43.772Z,2.05
2017-12-30T09:06:11.386Z,2.05
2017-12-30T09:08:39.016Z,2.07
2017-12-30T09:11:06.632Z,2.09
2017-12-30T09:13:34.752Z,2.15
2017-12-30T09:16:02.473Z,2.24
2017-12-30T09:18:30.144Z,2.34
2017-12-30T09:20:57.789Z,2.44
2017-12-30T09:23:25.422Z,2.51
2017-12-30T09:25:53.125Z,2.62
2017-12-30T09:28:20.749Z,2.69
2017-12-30T09:30:48.399Z,2.72
2017-12-30T09:33:16.056Z,2.78
2017-12-30T09:35:43.720Z,2.85
2017-12-30T09:38:11.464Z,2.91
2017-12-30T09:40:39.172Z,2.94
2017-12-30T09:43:06.793Z,2.96
2017-12-30T09:45:35.186Z,3.01
2017-12-30T09:48:04.673Z,3.02
2017-12-30T09:50:33.922Z,3.08
2017-12-30T09:53:02.421Z,3.12
2017-12-30T09:55:31.013Z,3.16
2017-12-30T09:57:58.664Z,3.19
2017-12-30T10:00:28.029Z,3.19
2017-12-30T10:02:55.718Z,3.18
2017-12-30T10:05:23.374Z,3.18
2017-12-30T10:07:51.128Z,3.20
2017-12-30T10:10:18.760Z,3.22
2017-12-30T10:12:49.055Z,3.29
2017-12-30T10:15:16.796Z,3.29
2017-12-30T10:17:45.182Z,3.27
2017-12-30T10:20:14.630Z,3.23
2017-12-30T10:22:42.352Z,3.23
2017-12-30T10:25:10.044Z,3.22
2017-12-30T10:27:37.674Z,3.13
2017-12-30T10:30:05.334Z,3.15
2017-12-30T10:32:33.131Z,3.14
2017-12-30T10:35:01.726Z,3.13
2017-12-30T10:37:29.590Z,3.08
2017-12-30T10:39:58.942Z,3.01
2017-12-30T10:42:26.614Z,2.96
2017-12-30T10:44:56.881Z,2.94
2017-12-30T10:47:24.526Z,2.89
2017-12-30T10:49:52.234Z,2.90
2017-12-30T10:52:19.954Z,2.86
2017-12-30T10:54:47.654Z,2.86
2017-12-30T10:57:16.033Z,2.84
2017-12-30T10:59:43.683Z,2.82
2017-12-30T11:02:11.292Z,2.76
2017-12-30T11:04:38.981Z,2.76
2017-12-30T11:07:06.687Z,2.79
2017-12-30T11:09:34.316Z,2.85
2017-12-30T11:12:02.000Z,2.88
2017-12-30T11:14:29.648Z,2.87
2017-12-30T11:16:57.369Z,2.88
2017-12-30T11:19:25.168Z,2.89
2017-12-30T11:21:52.814Z,2.88
2017-12-30T11:24:20.506Z,2.86
2017-12-30T11:26:50.222Z,2.89
2017-12-30T11:29:17.894Z,2.89
2017-12-30T11:31:47.350Z,2.86
2017-12-30T11:34:15.154Z,2.86
2017-12-30T11:36:42.918Z,2.92
2017-12-30T11:39:10.526Z,2.93
2017-12-30T11:41:38.238Z,2.93
2017-12-30T11:44:05.922Z,2.95
2017-12-30T11:46:33.554Z,2.91
2017-12-30T11:49:01.210Z,2.88
2017-12-30T11:51:29.935Z,2.89
2017-12-30T11:53:57.631Z,2.88
2017-12-30T11:56:25.322Z,2.87
2017-12-30T11:58:52.974Z,2.91
2017-12-30T12:01:20.661Z,2.88
2017-12-30T12:03:48.764Z,2.89
2017-12-30T12:06:16.490Z,2.85
2017-12-30T12:08:44.092Z,2.84
2017-12-30T12:11:11.938Z,2.81
2017-12-30T12:13:39.704Z,2.84
2017-12-30T12:16:07.440Z,2.79
2017-12-30T12:18:35.048Z,2.80
2017-12-30T12:21:02.698Z,2.82
2017-12-30T12:23:30.346Z,2.83
2017-12-30T12:25:58.930Z,2.82
2017-12-30T12:28:30.443Z,2.77
2017-12-30T12:30:58.560Z,2.75
2017-12-30T12:33:26.174Z,2.74
2017-12-30T12:35:53.956Z,2.75
2017-12-30T12:38:23.424Z,2.75
2017-12-30T12:40:51.106Z,2.72
2017-12-30T12:43:18.920Z,2.71
2017-12-30T12:45:48.418Z,2.71
2017-12-30T12:48:16.167Z,2.72
2017-12-30T12:50:45.440Z,2.70
2017-12-30T12:53:14.255Z,2.68
2017-12-30T12:55:42.072Z,2.68
2017-12-30T12:58:09.737Z,2.69
2017-12-30T13:00:39.185Z,2.69
2017-12-30T13:03:07.722Z,2.64
2017-12-30T13:05:35.423Z,2.67
2017-12-30T13:08:04.718Z,2.65
2017-12-30T13:10:32.538Z,2.65
2017-12-30T13:13:00.248Z,2.67
2017-12-30T13:15:27.888Z,2.69
2017-12-30T13:17:55.577Z,2.71
2017-12-30T13:20:23.315Z,2.70
2017-12-30T13:22:51.109Z,2.74
2017-12-30T13:25:19.994Z,2.77
2017-12-30T13:27:47.761Z,2.79
2017-12-30T13:30:15.737Z,2.79
2017-12-30T13:50:59.289Z,2.94
2017-12-30T13:53:26.889Z,2.94
2017-12-30T13:55:54.513Z,2.94
2017-12-30T13:58:22.157Z,2.94
2017-12-30T14:00:49.801Z,2.95
2017-12-30T14:03:17.395Z,2.94
2017-12-30T14:05:44.967Z,2.96
2017-12-30T14:08:15.549Z,2.97
2017-12-30T14:10:43.189Z,2.98
2017-12-30T14:13:12.697Z,2.97
2017-12-30T14:15:40.317Z,2.98
2017-12-30T14:18:09.089Z,3.01
2017-12-30T14:20:36.695Z,3.02
2017-12-30T14:23:04.272Z,3.04
2017-12-30T14:25:31.890Z,3.09
2017-12-30T14:27:59.471Z,3.13
2017-12-30T14:30:28.339Z,3.16
2017-12-30T14:32:55.928Z,3.17
2017-12-30T14:35:23.596Z,3.20
2017-12-30T14:37:52.291Z,3.26
2017-12-30T14:40:20.614Z,3.32
2017-12-30T14:42:48.306Z,3.32
2017-12-30T14:45:15.909Z,3.34
2017-12-30T14:47:44.497Z,3.36
2017-12-30T14:50:24.687Z,3.39
2017-12-30T14:52:52.293Z,3.50
2017-12-30T14:55:19.887Z,3.58
2017-12-30T14:57:48.354Z,3.63
2017-12-30T15:00:15.930Z,3.64
2017-12-30T15:02:43.564Z,3.72
2017-12-30T15:05:11.224Z,3.69
2017-12-30T15:07:38.907Z,3.77
2017-12-30T15:10:06.528Z,3.84
2017-12-30T15:12:34.214Z,3.88
2017-12-30T15:15:01.856Z,3.90
2017-12-30T15:17:29.460Z,3.93
2017-12-30T15:19:57.709Z,3.95
2017-12-30T15:22:25.387Z,3.95
2017-12-30T15:24:53.644Z,4.00
2017-12-30T15:27:27.051Z,4.05
2017-12-30T15:29:54.691Z,4.03
2017-12-30T15:32:22.286Z,4.05
2017-12-30T15:34:56.594Z,4.09
2017-12-30T15:37:37.151Z,4.06
2017-12-30T15:40:04.785Z,4.10
2017-12-30T15:42:32.477Z,4.19
2017-12-30T15:45:00.451Z,4.27
2017-12-30T15:47:35.179Z,4.30
2017-12-30T15:50:02.765Z,4.33
2017-12-30T15:52:30.689Z,4.34
2017-12-30T15:54:58.287Z,4.36
2017-12-30T15:57:27.424Z,4.37
2017-12-30T15:59:55.021Z,4.45
2017-12-30T16:02:22.712Z,4.52
2017-12-30T16:04:51.270Z,4.54
2017-12-30T16:07:18.928Z,4.58
2017-12-30T16:09:46.551Z,4.60
2017-12-30T16:12:16.739Z,4.70
2017-12-30T16:14:44.335Z,4.73
2017-12-30T16:17:11.972Z,4.79
2017-12-30T16:19:46.865Z,4.85
2017-12-30T16:22:17.664Z,4.92
2017-12-30T16:24:48.641Z,4.99
2017-12-30T16:27:18.683Z,5.10
2017-12-30T16:29:46.279Z,5.17
2017-12-30T16:32:13.856Z,5.30
2017-12-30T16:34:41.475Z,5.35
2017-12-30T16:37:09.073Z,5.39
2017-12-30T16:39:36.692Z,5.51
2017-12-30T16:42:24.049Z,5.53
2017-12-30T16:44:51.656Z,5.62
2017-12-30T16:47:19.211Z,5.73
2017-12-30T16:49:54.419Z,5.84
2017-12-30T16:52:22.026Z,5.89
2017-12-30T16:54:49.617Z,5.85
2017-12-30T16:57:23.981Z,5.91
2017-12-30T16:59:51.613Z,5.88
2017-12-30T17:02:19.183Z,5.91
2017-12-30T17:04:54.537Z,6.04
2017-12-30T17:07:22.108Z,6.09
2017-12-30T17:09:49.672Z,6.11
2017-12-30T17:12:17.325Z,6.13
2017-12-30T17:14:44.882Z,6.09
2017-12-30T17:17:12.504Z,6.16
2017-12-30T17:19:46.770Z,6.19
2017-12-30T17:22:14.404Z,6.22
2017-12-30T17:24:41.978Z,6.25
2017-12-30T17:27:09.564Z,6.25
2017-12-30T17:29:37.126Z,6.29
2017-12-30T17:32:05.256Z,6.22
2017-12-30T17:34:32.831Z,6.19
2017-12-30T17:37:00.694Z,6.18
2017-12-30T17:39:28.314Z,6.21
2017-12-30T17:41:55.900Z,6.18
2017-12-30T17:44:23.510Z,6.22
2017-12-30T17:46:51.080Z,6.17
2017-12-30T17:49:20.507Z,6.19
2017-12-30T17:51:48.067Z,6.27
2017-12-30T17:54:15.669Z,6.40
2017-12-30T17:56:53.108Z,6.48
2017-12-30T17:59:20.793Z,6.52
2017-12-30T18:01:48.388Z,6.61
2017-12-30T18:04:19.688Z,6.65
2017-12-30T18:06:47.397Z,6.70
2017-12-30T18:09:14.962Z,6.72
2017-12-30T18:11:45.558Z,6.92
2017-12-30T18:14:18.972Z,7.03
2017-12-30T18:16:47.244Z,7.06
2017-12-30T18:19:24.076Z,7.07
2017-12-30T18:21:52.692Z,7.05
2017-12-30T18:24:20.266Z,7.08
2017-12-30T18:26:53.631Z,7.05
2017-12-30T18:29:31.517Z,7.21
2017-12-30T18:31:59.263Z,7.23
2017-12-30T18:34:27.022Z,7.28
2017-12-30T18:36:55.827Z,7.28
2017-12-30T18:39:23.476Z,7.25
2017-12-30T18:41:51.062Z,7.31
2017-12-30T18:44:18.688Z,7.30
2017-12-30T18:46:46.303Z,7.35
2017-12-30T18:49:13.928Z,7.39
2017-12-30T18:51:41.556Z,7.35
2017-12-30T18:54:09.159Z,7.36
2017-12-30T18:56:40.454Z,7.41
2017-12-30T18:59:08.066Z,7.39
2017-12-30T19:01:46.148Z,7.43
2017-12-30T19:04:13.824Z,7.39
2017-12-30T19:06:41.445Z,7.36
2017-12-30T19:09:09.036Z,7.38
2017-12-30T19:11:39.012Z,7.51
2017-12-30T19:14:06.594Z,7.67
2017-12-30T19:16:34.240Z,7.77
2017-12-30T19:19:01.907Z,7.75
2017-12-30T19:21:29.551Z,7.78
2017-12-30T19:23:57.156Z,7.78
2017-12-30T19:26:38.022Z,7.81
2017-12-30T19:29:05.619Z,7.81
2017-12-30T19:31:33.267Z,7.85
2017-12-30T19:34:02.136Z,7.96
2017-12-30T19:36:29.801Z,7.99
2017-12-30T19:38:57.503Z,8.00
2017-12-30T19:41:25.149Z,8.01
2017-12-30T19:43:52.835Z,8.03
2017-12-30T19:46:44.161Z,8.10
2017-12-30T19:49:13.204Z,8.15
2017-12-30T19:51:40.949Z,8.15
2017-12-30T19:54:08.688Z,8.17
2017-12-30T19:56:37.283Z,8.22
2017-12-30T19:59:05.025Z,8.23
2017-12-30T20:01:32.825Z,8.23
2017-12-30T20:04:00.690Z,8.19
2017-12-30T20:06:28.682Z,8.15
2017-12-30T20:08:56.428Z,8.18
2017-12-30T20:11:24.104Z,8.18
2017-12-30T20:13:51.791Z,8.20
2017-12-30T20:16:19.505Z,8.18
2017-12-30T20:18:51.227Z,8.18
2017-12-30T20:21:19.023Z,8.22
2017-12-30T20:23:46.759Z,8.27
2017-12-30T20:26:15.378Z,8.26
2017-12-30T20:28:43.144Z,8.30
2017-12-30T20:31:14.696Z,8.33
2017-12-30T20:33:42.441Z,8.31
2017-12-30T20:36:10.531Z,8.30
2017-12-30T20:38:38.285Z,8.29
2017-12-30T20:41:06.048Z,8.26
2017-12-30T20:43:33.713Z,8.23
2017-12-30T20:46:01.383Z,8.24
2017-12-30T20:48:29.088Z,8.30
2017-12-30T20:50:56.899Z,8.31
2017-12-30T20:53:24.630Z,8.32
2017-12-30T20:55:52.352Z,8.30
2017-12-30T20:58:30.458Z,8.32
2017-12-30T21:00:58.146Z,8.30
2017-12-30T21:03:25.915Z,8.28
2017-12-30T21:05:53.816Z,8.27
2017-12-30T21:08:21.573Z,8.24
2017-12-30T21:10:50.070Z,8.21
2017-12-30T21:13:17.793Z,8.24
2017-12-30T21:15:45.594Z,8.33
2017-12-30T21:18:13.396Z,8.45
2017-12-30T21:20:41.198Z,8.52
2017-12-30T21:23:15.449Z,8.55
2017-12-30T21:25:43.582Z,8.61
2017-12-30T21:28:17.623Z,8.81
2017-12-30T21:30:45.406Z,8.86
2017-12-30T21:33:13.238Z,8.91
2017-12-30T21:35:40.982Z,9.00
2017-12-30T21:38:08.720Z,9.13
2017-12-30T21:40:36.433Z,9.09
2017-12-30T21:43:04.095Z,9.07
2017-12-30T21:45:31.718Z,9.10
2017-12-30T21:47:59.441Z,9.13
2017-12-30T21:50:27.053Z,9.06
2017-12-30T21:52:55.170Z,9.11
2017-12-30T21:55:23.668Z,9.11
2017-12-30T21:57:54.663Z,9.13
2017-12-30T22:00:22.298Z,9.12
2017-12-30T22:02:52.675Z,9.19
2017-12-30T22:05:20.362Z,9.25
2017-12-30T22:07:48.029Z,9.32
2017-12-30T22:10:15.665Z,9.32
2017-12-30T22:12:43.333Z,9.33
2017-12-30T22:15:11.319Z,9.44
2017-12-30T22:17:38.949Z,9.50
2017-12-30T22:20:06.616Z,9.52
2017-12-30T22:22:34.260Z,9.54
2017-12-30T22:25:01.895Z,9.60
2017-12-30T22:27:29.603Z,9.60
2017-12-30T22:29:57.240Z,9.62
2017-12-30T22:32:24.869Z,9.70
2017-12-30T22:34:52.552Z,9.73
2017-12-30T22:37:20.137Z,9.76
2017-12-30T22:39:47.747Z,9.79
2017-12-30T22:42:15.370Z,9.77
2017-12-30T22:44:43.862Z,9.79
2017-12-30T22:47:11.471Z,9.78
2017-12-30T22:49:41.926Z,9.82
2017-12-30T22:52:09.528Z,9.81
2017-12-30T22:54:37.124Z,9.87
2017-12-30T22:57:04.749Z,9.91
2017-12-30T22:59:32.329Z,9.88
2017-12-30T23:01:59.960Z,9.88
2017-12-30T23:04:27.591Z,9.88
2017-12-30T23:06:55.175Z,9.90
2017-12-30T23:09:22.815Z,9.90
2017-12-30T23:11:50.400Z,9.87
2017-12-30T23:14:18.050Z,9.91
2017-12-30T23:16:45.641Z,9.87
2017-12-30T23:19:13.276Z,9.90
2017-12-30T23:21:40.919Z,9.89
2017-12-30T23:24:08.492Z,9.87
2017-12-30T23:26:36.089Z,9.92
2017-12-30T23:29:03.712Z,9.92
2017-12-30T23:31:31.300Z,9.98
2017-12-30T23:33:58.875Z,9.98
2017-12-30T23:36:26.599Z,10.03
2017-12-30T23:38:54.201Z,10.01
2017-12-30T23:41:21.835Z,10.02
2017-12-30T23:43:49.431Z,10.07
2017-12-30T23:46:17.557Z,10.06
2017-12-30T23:48:45.163Z,10.05
2017-12-30T23:51:12.781Z,10.05
2017-12-30T23:53:40.428Z,10.05
2017-12-30T23:56:08.791Z,10.10
2017-12-30T23:58:36.387Z,10.11
